Time;durP1;ratioP1;P1;durP2;ratioP2;P2;SDS_P1;SDS_P2;PMS_P1;PMS_P2;Temp;Humidity;BMP_temperature;BMP_pressure;BME280_temperature;BME280_humidity;BME280_pressure;Samples;Min_cycle;Max_cycle;Signal;HPM_P1;HPM_P2
2023/12/30 00:01:34;;;;;;;6.47;1.45;;;8.60;99.90;;;;;;4952070;28;20023;-78
2023/12/30 00:04:00;;;;;;;9.52;1.35;;;8.60;99.90;;;;;;4946482;28;21037;-79
2023/12/30 00:06:26;;;;;;;4.57;0.90;;;8.60;99.90;;;;;;4962121;28;20031;-78
2023/12/30 00:08:51;;;;;;;5.20;0.95;;;8.60;99.90;;;;;;4948257;28;20272;-79
2023/12/30 00:11:17;;;;;;;10.32;1.25;;;8.60;99.90;;;;;;4950379;28;20022;-79
2023/12/30 00:13:42;;;;;;;11.38;1.33;;;8.60;99.90;;;;;;4978566;28;20076;-79
2023/12/30 00:16:10;;;;;;;7.13;1.10;;;8.60;99.90;;;;;;4975456;28;20066;-79
2023/12/30 00:18:36;;;;;;;6.88;1.42;;;8.50;99.90;;;;;;4962322;28;20114;-80
2023/12/30 00:21:01;;;;;;;11.68;1.33;;;8.60;99.90;;;;;;4951548;28;20101;-79
2023/12/30 00:23:27;;;;;;;8.45;1.80;;;8.60;99.90;;;;;;4965100;28;20049;-79
2023/12/30 00:25:54;;;;;;;8.10;1.52;;;8.60;99.90;;;;;;4966419;28;20034;-79
2023/12/30 00:28:20;;;;;;;8.63;0.88;;;8.60;99.90;;;;;;4931911;28;20041;-80
2023/12/30 00:30:45;;;;;;;7.30;1.13;;;8.60;99.90;;;;;;4949367;28;20158;-79
2023/12/30 00:33:11;;;;;;;7.10;0.88;;;8.60;99.90;;;;;;4933387;28;20041;-78
2023/12/30 00:35:36;;;;;;;9.68;1.52;;;8.60;99.90;;;;;;4943016;28;20455;-78
2023/12/30 00:38:02;;;;;;;6.20;1.75;;;8.60;99.90;;;;;;4930406;28;20050;-78
2023/12/30 00:40:28;;;;;;;3.63;0.88;;;8.60;99.90;;;;;;4961719;28;20322;-79
2023/12/30 00:42:53;;;;;;;7.18;1.75;;;8.50;99.90;;;;;;4939802;28;20041;-80
2023/12/30 00:45:19;;;;;;;10.00;1.10;;;8.50;99.90;;;;;;4964938;28;20065;-80
2023/12/30 00:47:44;;;;;;;7.38;1.15;;;8.50;99.90;;;;;;4948718;28;20447;-79
2023/12/30 00:50:10;;;;;;;6.82;0.95;;;8.50;99.90;;;;;;4949540;28;20073;-78
2023/12/30 00:52:35;;;;;;;12.45;1.73;;;8.50;99.90;;;;;;4964856;28;21151;-80
2023/12/30 00:55:01;;;;;;;6.45;1.38;;;8.50;99.90;;;;;;4932952;28;20500;-78
2023/12/30 00:57:26;;;;;;;10.88;1.88;;;8.40;99.90;;;;;;4965550;28;20477;-79
2023/12/30 00:59:52;;;;;;;8.18;2.35;;;8.40;99.90;;;;;;4948820;28;20022;-79
2023/12/30 01:02:17;;;;;;;2.63;0.93;;;8.40;99.90;;;;;;4948600;28;20026;-81
2023/12/30 01:04:43;;;;;;;11.23;1.77;;;8.40;99.90;;;;;;4952261;28;20113;-79
2023/12/30 01:07:08;;;;;;;9.95;1.17;;;8.40;99.90;;;;;;4961629;28;20038;-80
2023/12/30 01:09:34;;;;;;;8.63;1.48;;;8.40;99.90;;;;;;4964165;28;20030;-80
2023/12/30 01:11:59;;;;;;;6.05;1.30;;;8.40;99.90;;;;;;4947527;28;20034;-79
2023/12/30 01:14:25;;;;;;;5.13;1.40;;;8.40;99.90;;;;;;4948728;28;20038;-79
2023/12/30 01:16:51;;;;;;;6.32;0.95;;;8.40;99.90;;;;;;4929085;28;20412;-79
2023/12/30 01:19:16;;;;;;;7.22;1.20;;;8.40;99.90;;;;;;4946893;28;20027;-78
2023/12/30 01:21:42;;;;;;;14.07;1.65;;;8.30;99.90;;;;;;4977395;28;20025;-79
2023/12/30 01:24:07;;;;;;;10.52;1.40;;;8.40;99.90;;;;;;4949612;28;20046;-80
2023/12/30 01:26:33;;;;;;;4.88;1.15;;;8.40;99.90;;;;;;4929600;28;20039;-79
2023/12/30 01:28:59;;;;;;;7.10;1.75;;;8.50;99.90;;;;;;4962317;28;20038;-79
2023/12/30 01:31:24;;;;;;;15.50;1.60;;;8.40;99.90;;;;;;4952494;28;20037;-80
2023/12/30 01:33:50;;;;;;;5.25;1.42;;;8.40;99.90;;;;;;4961156;28;20057;-78
2023/12/30 01:36:15;;;;;;;7.80;1.48;;;8.30;99.90;;;;;;4941780;28;21780;-79
2023/12/30 01:38:41;;;;;;;6.25;2.15;;;8.30;99.90;;;;;;4947257;28;20045;-78
2023/12/30 01:41:07;;;;;;;10.23;1.50;;;8.30;99.90;;;;;;4964224;28;20855;-80
2023/12/30 01:43:33;;;;;;;10.32;1.52;;;8.20;99.90;;;;;;4944034;28;20178;-79
2023/12/30 01:46:01;;;;;;;11.60;1.33;;;8.20;99.90;;;;;;4928222;28;20507;-78
2023/12/30 01:48:27;;;;;;;8.40;1.33;;;8.20;99.90;;;;;;4952875;28;20373;-79
2023/12/30 01:50:53;;;;;;;11.45;1.10;;;8.20;99.90;;;;;;4947755;28;20058;-79
2023/12/30 01:53:22;;;;;;;6.90;0.82;;;8.10;99.90;;;;;;4964090;28;20112;-79
2023/12/30 01:55:50;;;;;;;7.40;1.30;;;8.10;99.90;;;;;;4946388;28;20030;-79
2023/12/30 01:58:15;;;;;;;9.43;1.63;;;8.00;99.90;;;;;;4964222;28;20038;-79
2023/12/30 02:00:41;;;;;;;12.52;1.30;;;8.00;99.90;;;;;;4984575;28;20030;-80
2023/12/30 02:03:07;;;;;;;3.45;1.10;;;8.00;99.90;;;;;;4935731;28;20034;-79
2023/12/30 02:05:33;;;;;;;7.95;1.40;;;7.90;99.90;;;;;;4934406;28;20041;-79
2023/12/30 02:07:59;;;;;;;5.72;0.82;;;8.00;99.90;;;;;;4932929;28;20821;-79
2023/12/30 02:10:24;;;;;;;9.27;1.98;;;8.10;99.90;;;;;;4967302;28;20030;-80
2023/12/30 02:12:50;;;;;;;4.68;0.88;;;8.00;99.90;;;;;;4952200;28;20381;-79
2023/12/30 02:15:17;;;;;;;7.22;1.20;;;7.90;99.90;;;;;;4937341;28;20512;-78
2023/12/30 02:17:43;;;;;;;6.22;1.38;;;7.80;99.90;;;;;;4964610;28;20748;-78
2023/12/30 02:20:09;;;;;;;6.13;0.82;;;7.80;99.90;;;;;;4981963;28;20501;-78
2023/12/30 02:22:35;;;;;;;4.22;0.63;;;7.80;99.90;;;;;;4951396;28;20408;-80
2023/12/30 02:25:02;;;;;;;4.78;1.23;;;8.00;99.90;;;;;;4947397;28;20034;-79
2023/12/30 02:30:49;;;;;;;10.25;1.00;;;7.80;99.90;;;;;;4983240;28;20033;-79
2023/12/30 02:33:14;;;;;;;4.65;0.98;;;7.70;99.90;;;;;;4945732;28;20027;-79
2023/12/30 02:35:43;;;;;;;4.97;0.73;;;7.80;99.90;;;;;;4964039;28;20065;-79
2023/12/30 02:38:09;;;;;;;12.68;3.50;;;7.80;99.90;;;;;;4965135;28;20400;-79
2023/12/30 02:40:34;;;;;;;3.92;1.15;;;7.90;99.90;;;;;;4966508;28;20111;-80
2023/12/30 02:43:00;;;;;;;4.32;1.35;;;7.80;99.90;;;;;;4969055;28;20077;-79
2023/12/30 02:45:25;;;;;;;4.82;1.35;;;7.70;99.90;;;;;;4969266;28;20472;-78
2023/12/30 02:47:51;;;;;;;5.03;1.23;;;7.60;99.90;;;;;;4951762;28;20439;-79
2023/12/30 02:50:16;;;;;;;9.68;1.70;;;7.60;99.90;;;;;;4932210;28;20149;-80
2023/12/30 02:52:42;;;;;;;6.55;1.33;;;7.70;99.90;;;;;;4969580;28;20408;-79
2023/12/30 02:55:09;;;;;;;10.20;1.77;;;7.70;99.90;;;;;;4969683;28;20023;-80
2023/12/30 02:57:35;;;;;;;3.88;1.52;;;7.70;99.90;;;;;;4958779;28;20547;-80
2023/12/30 03:00:00;;;;;;;4.97;1.63;;;7.80;99.90;;;;;;4951071;28;20022;-78
2023/12/30 03:02:26;;;;;;;6.03;1.17;;;7.70;99.90;;;;;;4951896;28;20045;-79
2023/12/30 03:04:54;;;;;;;6.53;1.70;;;7.60;99.90;;;;;;4951933;28;20064;-79
2023/12/30 03:07:20;;;;;;;8.18;1.60;;;7.60;99.90;;;;;;4980453;28;20173;-79
2023/12/30 03:09:45;;;;;;;5.63;1.00;;;7.70;99.90;;;;;;4949377;28;20109;-80
2023/12/30 03:12:11;;;;;;;7.68;1.83;;;7.70;99.90;;;;;;4965217;28;20387;-80
2023/12/30 03:14:37;;;;;;;4.88;0.90;;;7.70;99.90;;;;;;4931996;28;20045;-80
2023/12/30 03:17:02;;;;;;;9.75;1.45;;;7.70;99.90;;;;;;4947682;28;20045;-80
2023/12/30 03:19:28;;;;;;;4.38;0.65;;;7.60;99.90;;;;;;4951988;28;20030;-80
2023/12/30 03:21:54;;;;;;;3.17;0.65;;;7.60;99.90;;;;;;4966732;28;20057;-80
2023/12/30 03:24:20;;;;;;;6.97;1.33;;;7.60;99.90;;;;;;4983264;28;20042;-79
2023/12/30 03:26:45;;;;;;;13.60;1.95;;;7.60;99.90;;;;;;4965443;28;20039;-79
2023/12/30 03:29:11;;;;;;;4.13;0.98;;;7.60;99.90;;;;;;4963738;28;20503;-79
2023/12/30 03:31:36;;;;;;;4.47;1.38;;;7.60;99.90;;;;;;4947791;28;20038;-80
2023/12/30 03:34:02;;;;;;;14.52;1.90;;;7.70;99.90;;;;;;4951405;28;20030;-80
2023/12/30 03:36:27;;;;;;;14.77;1.88;;;7.60;99.90;;;;;;4964266;28;20299;-79
2023/12/30 03:38:53;;;;;;;15.57;1.52;;;7.60;99.90;;;;;;4965364;28;20038;-79
2023/12/30 03:41:19;;;;;;;8.68;2.08;;;7.50;99.90;;;;;;4951256;28;20066;-79
2023/12/30 03:43:45;;;;;;;9.30;2.10;;;7.50;99.90;;;;;;4933732;28;20038;-79
2023/12/30 03:46:10;;;;;;;3.70;1.08;;;7.60;99.90;;;;;;4950558;28;20030;-80
2023/12/30 03:48:36;;;;;;;9.18;1.30;;;7.50;99.90;;;;;;4952216;28;20057;-79
2023/12/30 03:51:02;;;;;;;9.65;1.35;;;7.60;99.90;;;;;;4950611;28;20440;-79
2023/12/30 03:53:28;;;;;;;19.08;2.17;;;7.60;99.90;;;;;;4933966;28;20045;-80
2023/12/30 03:55:53;;;;;;;10.80;1.23;;;7.60;99.90;;;;;;4965200;28;20053;-80
2023/12/30 03:58:19;;;;;;;8.82;1.05;;;7.70;99.90;;;;;;4967312;28;20273;-79
2023/12/30 04:00:45;;;;;;;8.15;0.70;;;7.60;99.90;;;;;;4947535;28;20053;-79
2023/12/30 04:03:10;;;;;;;8.13;1.88;;;7.70;99.90;;;;;;4938335;28;20030;-79
2023/12/30 04:05:37;;;;;;;3.13;0.82;;;7.70;99.90;;;;;;4949198;28;20563;-80
2023/12/30 04:08:03;;;;;;;7.05;1.73;;;7.70;99.90;;;;;;4954271;28;20038;-79
2023/12/30 04:10:29;;;;;;;5.72;0.90;;;7.70;99.90;;;;;;4969857;28;20039;-81
2023/12/30 04:12:54;;;;;;;7.90;1.65;;;7.80;99.90;;;;;;4949637;28;20097;-80
2023/12/30 04:15:21;;;;;;;6.75;1.58;;;7.80;99.90;;;;;;4980481;28;20459;-80
2023/12/30 04:17:47;;;;;;;18.42;1.98;;;7.80;99.90;;;;;;4963603;28;20044;-79
2023/12/30 04:20:12;;;;;;;11.23;1.25;;;7.70;99.90;;;;;;4965732;28;20030;-78
2023/12/30 04:22:38;;;;;;;12.15;1.45;;;7.80;99.90;;;;;;4948578;28;20439;-79
2023/12/30 04:25:04;;;;;;;4.15;0.85;;;7.80;99.90;;;;;;4949850;28;20377;-79
2023/12/30 04:27:29;;;;;;;11.80;1.77;;;7.90;99.90;;;;;;4951273;28;20397;-79
2023/12/30 04:29:55;;;;;;;5.88;1.20;;;7.80;99.90;;;;;;4945298;28;20089;-84
2023/12/30 04:32:21;;;;;;;14.05;2.10;;;7.80;99.90;;;;;;4948095;28;20059;-84
2023/12/30 04:34:48;;;;;;;4.93;1.17;;;7.70;99.90;;;;;;4948804;28;20038;-84
2023/12/30 04:37:14;;;;;;;5.50;1.35;;;7.70;99.90;;;;;;4949076;28;20093;-79
2023/12/30 04:39:40;;;;;;;5.15;1.20;;;7.70;99.90;;;;;;4947012;28;20031;-79
2023/12/30 04:42:06;;;;;;;2.97;0.90;;;7.60;99.90;;;;;;4963342;28;20035;-79
2023/12/30 04:44:32;;;;;;;9.30;1.42;;;7.70;99.90;;;;;;4981408;28;20046;-83
2023/12/30 04:46:57;;;;;;;9.35;1.20;;;7.70;99.90;;;;;;4950544;28;20118;-84
2023/12/30 04:49:23;;;;;;;11.38;1.92;;;7.70;99.90;;;;;;4945558;28;20094;-83
2023/12/30 04:51:48;;;;;;;10.10;1.58;;;7.70;99.90;;;;;;4976879;28;20039;-85
2023/12/30 04:54:14;;;;;;;12.38;1.75;;;7.80;99.90;;;;;;4942814;28;20030;-84
2023/12/30 04:56:40;;;;;;;5.57;1.13;;;7.70;99.90;;;;;;4947955;28;20644;-84
2023/12/30 04:59:05;;;;;;;12.00;1.80;;;7.70;99.90;;;;;;4958090;28;20061;-84
2023/12/30 05:01:31;;;;;;;3.42;1.08;;;7.70;99.90;;;;;;4948587;28;20909;-84
2023/12/30 05:03:56;;;;;;;7.88;1.38;;;7.70;99.90;;;;;;4919502;28;20405;-84
2023/12/30 05:06:22;;;;;;;8.98;1.98;;;7.60;99.90;;;;;;4952679;28;20038;-85
2023/12/30 05:08:49;;;;;;;4.32;0.60;;;7.70;99.90;;;;;;4962102;28;20026;-84
2023/12/30 05:11:15;;;;;;;7.53;2.40;;;7.70;99.90;;;;;;4964961;28;20453;-83
2023/12/30 05:13:42;;;;;;;1.98;0.90;;;7.60;99.90;;;;;;4977063;28;20042;-83
2023/12/30 05:16:07;;;;;;;5.60;1.20;;;7.60;99.90;;;;;;4937298;28;20034;-82
2023/12/30 05:18:33;;;;;;;4.68;1.00;;;7.60;99.90;;;;;;4951935;28;20060;-85
2023/12/30 05:20:58;;;;;;;9.95;1.63;;;7.60;99.90;;;;;;4950861;28;20077;-85
2023/12/30 05:23:24;;;;;;;9.40;1.50;;;7.50;99.90;;;;;;4951156;28;20096;-84
2023/12/30 05:25:49;;;;;;;16.95;2.10;;;7.50;99.90;;;;;;4947255;28;20107;-85
2023/12/30 05:28:15;;;;;;;2.30;0.70;;;7.60;99.90;;;;;;4950212;28;20032;-84
2023/12/30 05:30:40;;;;;;;2.03;0.68;;;7.60;99.90;;;;;;4945351;28;20828;-80
2023/12/30 05:33:07;;;;;;;5.97;1.33;;;7.60;99.90;;;;;;4977919;28;20496;-80
2023/12/30 05:35:33;;;;;;;5.60;1.77;;;7.50;99.90;;;;;;4935447;28;20822;-80
2023/12/30 05:37:59;;;;;;;6.10;1.15;;;7.50;99.90;;;;;;4963236;28;20480;-79
2023/12/30 05:40:24;;;;;;;5.20;1.67;;;7.40;99.90;;;;;;4949408;28;20065;-79
2023/12/30 05:42:50;;;;;;;10.77;1.30;;;7.40;99.90;;;;;;4968515;28;20035;-80
2023/12/30 05:45:15;;;;;;;7.70;1.45;;;7.40;99.90;;;;;;4968572;28;20089;-80
2023/12/30 05:47:41;;;;;;;13.77;1.83;;;7.40;99.90;;;;;;4966800;28;20407;-80
2023/12/30 05:50:07;;;;;;;14.27;0.98;;;7.30;99.90;;;;;;4985532;28;20101;-79
2023/12/30 05:52:34;;;;;;;3.13;0.77;;;7.40;99.90;;;;;;4966900;28;20463;-80
2023/12/30 05:54:59;;;;;;;7.78;1.10;;;7.40;99.90;;;;;;4946903;28;20499;-80
2023/12/30 05:57:25;;;;;;;8.45;1.30;;;7.30;99.90;;;;;;4950753;28;20039;-80
2023/12/30 05:59:50;;;;;;;5.60;1.10;;;7.50;99.90;;;;;;4937869;28;20026;-80
2023/12/30 06:02:16;;;;;;;5.28;1.55;;;7.20;99.90;;;;;;4967209;28;20050;-79
2023/12/30 06:04:42;;;;;;;4.45;1.05;;;7.30;99.90;;;;;;4940568;28;20574;-80
2023/12/30 06:07:08;;;;;;;16.67;1.80;;;7.30;99.90;;;;;;4953859;28;20408;-79
2023/12/30 06:09:33;;;;;;;7.72;1.45;;;7.30;99.90;;;;;;4957103;28;20038;-79
2023/12/30 06:11:59;;;;;;;4.30;0.90;;;7.30;99.90;;;;;;4956764;28;20042;-80
2023/12/30 06:14:24;;;;;;;6.80;1.10;;;7.20;99.90;;;;;;4952286;28;20137;-80
2023/12/30 06:16:50;;;;;;;5.13;1.15;;;7.20;99.90;;;;;;4978229;28;20038;-80
2023/12/30 06:19:16;;;;;;;10.00;2.30;;;7.20;99.90;;;;;;4944873;28;20049;-80
2023/12/30 06:21:42;;;;;;;6.78;1.70;;;7.30;99.90;;;;;;4950698;28;20049;-81
2023/12/30 06:24:08;;;;;;;4.43;1.00;;;7.30;99.90;;;;;;4964849;28;20042;-80
2023/12/30 06:26:38;;;;;;;6.10;1.60;;;7.30;99.90;;;;;;4919862;28;20057;-80
2023/12/30 06:29:03;;;;;;;10.20;1.02;;;7.20;99.90;;;;;;4994658;28;20039;-79
2023/12/30 06:31:29;;;;;;;4.20;1.25;;;7.30;99.90;;;;;;4965272;28;20317;-80
2023/12/30 06:34:04;;;;;;;14.25;1.23;;;7.20;99.90;;;;;;4951049;28;20166;-81
2023/12/30 06:36:29;;;;;;;5.65;0.77;;;7.30;99.90;;;;;;4952116;28;20042;-80
2023/12/30 06:38:55;;;;;;;4.88;0.68;;;7.30;99.90;;;;;;4952169;28;20396;-79
2023/12/30 06:41:20;;;;;;;8.73;2.70;;;7.20;99.90;;;;;;4949833;28;20452;-80
2023/12/30 06:43:46;;;;;;;11.05;2.20;;;7.30;99.90;;;;;;4952906;28;20508;-79
2023/12/30 06:46:12;;;;;;;6.93;1.35;;;7.30;99.90;;;;;;4955501;28;20743;-80
2023/12/30 06:48:37;;;;;;;6.97;2.63;;;7.30;99.90;;;;;;4951978;28;20042;-79
2023/12/30 06:51:04;;;;;;;4.97;1.20;;;7.30;99.90;;;;;;4937630;28;20117;-84
2023/12/30 06:53:30;;;;;;;2.47;1.15;;;7.30;99.90;;;;;;4955583;28;20041;-85
2023/12/30 06:56:02;;;;;;;13.00;2.40;;;7.30;99.90;;;;;;4971275;28;20033;-86
2023/12/30 06:58:29;;;;;;;5.63;1.25;;;7.40;99.90;;;;;;4968939;28;20562;-85
2023/12/30 07:00:54;;;;;;;9.73;1.55;;;7.30;99.90;;;;;;4952492;28;20931;-86
2023/12/30 07:03:20;;;;;;;7.97;1.52;;;7.40;99.90;;;;;;4953047;28;20041;-85
2023/12/30 07:05:46;;;;;;;33.53;2.90;;;7.30;99.90;;;;;;4954035;28;20104;-85
2023/12/30 07:08:12;;;;;;;11.60;2.30;;;7.50;99.90;;;;;;4953960;28;20038;-85
2023/12/30 07:10:38;;;;;;;11.93;1.52;;;7.30;99.90;;;;;;4954441;28;20039;-86
2023/12/30 07:13:03;;;;;;;10.18;1.88;;;7.40;99.90;;;;;;4953629;28;20045;-86
2023/12/30 07:15:29;;;;;;;3.92;1.45;;;7.30;99.90;;;;;;4964242;28;20035;-84
2023/12/30 07:17:55;;;;;;;9.23;2.08;;;7.30;99.90;;;;;;4949366;28;20045;-85
2023/12/30 07:20:21;;;;;;;11.55;1.85;;;7.40;99.90;;;;;;4932396;28;20018;-86
2023/12/30 07:22:47;;;;;;;15.63;2.75;;;7.40;99.90;;;;;;4953955;28;20041;-86
2023/12/30 07:25:13;;;;;;;10.98;1.95;;;7.40;99.90;;;;;;4952790;28;20034;-83
2023/12/30 07:27:38;;;;;;;9.15;1.02;;;7.40;99.90;;;;;;4967997;28;20038;-85
2023/12/30 07:30:05;;;;;;;12.82;1.20;;;7.30;99.90;;;;;;4969104;28;20033;-85
2023/12/30 07:32:30;;;;;;;9.02;1.70;;;7.30;99.90;;;;;;4952221;28;20046;-85
2023/12/30 07:34:56;;;;;;;11.20;1.83;;;7.30;99.90;;;;;;4950724;28;20034;-85
2023/12/30 07:37:22;;;;;;;11.25;1.65;;;7.40;99.90;;;;;;4951971;28;20070;-84
2023/12/30 07:39:49;;;;;;;11.20;1.67;;;7.20;99.90;;;;;;4951973;28;20034;-84
2023/12/30 07:42:16;;;;;;;5.93;1.20;;;7.30;99.90;;;;;;4937059;28;20170;-86
2023/12/30 07:44:41;;;;;;;5.43;1.58;;;7.20;99.90;;;;;;4967266;28;20121;-86
2023/12/30 07:47:07;;;;;;;7.85;1.75;;;7.20;99.90;;;;;;4953778;28;20616;-84
2023/12/30 07:49:33;;;;;;;5.60;1.30;;;7.30;99.90;;;;;;4952684;28;20121;-84
2023/12/30 07:52:00;;;;;;;22.50;3.10;;;7.30;99.90;;;;;;4952286;28;20043;-84
2023/12/30 07:54:26;;;;;;;7.03;1.27;;;7.40;99.90;;;;;;4980890;28;20034;-85
2023/12/30 07:56:52;;;;;;;12.90;1.83;;;7.40;99.90;;;;;;4964186;28;20113;-84
2023/12/30 07:59:17;;;;;;;8.48;2.25;;;7.40;99.90;;;;;;4997159;28;20124;-85
2023/12/30 08:01:46;;;;;;;7.90;2.15;;;7.40;99.90;;;;;;4954189;28;20400;-85
2023/12/30 08:04:22;;;;;;;12.15;1.83;;;7.40;99.90;;;;;;4966286;28;20385;-85
2023/12/30 08:06:48;;;;;;;2.83;1.70;;;7.40;99.90;;;;;;4952944;28;20066;-85
2023/12/30 08:09:13;;;;;;;10.90;2.00;;;7.50;99.90;;;;;;4952717;28;20034;-84
2023/12/30 08:11:39;;;;;;;12.57;1.92;;;7.50;99.90;;;;;;4952762;28;20504;-86
2023/12/30 08:14:05;;;;;;;6.35;1.25;;;7.50;99.90;;;;;;4967980;28;20039;-86
2023/12/30 08:16:32;;;;;;;3.92;1.25;;;7.50;99.90;;;;;;4951739;28;20122;-85
2023/12/30 08:18:58;;;;;;;9.23;1.95;;;7.50;99.90;;;;;;4979439;28;20331;-85
2023/12/30 08:21:23;;;;;;;9.38;1.65;;;7.50;99.90;;;;;;4953117;28;20033;-84
2023/12/30 08:23:49;;;;;;;13.73;1.98;;;7.50;99.90;;;;;;4951374;28;20043;-85
2023/12/30 08:26:15;;;;;;;6.22;0.68;;;7.60;99.90;;;;;;4953791;28;20046;-84
2023/12/30 08:28:42;;;;;;;4.05;0.75;;;7.60;99.90;;;;;;4954327;28;20046;-83
2023/12/30 08:31:07;;;;;;;9.52;1.02;;;7.60;99.90;;;;;;4966985;28;20049;-83
2023/12/30 08:33:33;;;;;;;3.60;1.10;;;7.70;99.90;;;;;;4967671;28;20047;-83
2023/12/30 08:36:04;;;;;;;7.20;1.73;;;7.70;99.90;;;;;;4947498;28;20038;-84
2023/12/30 08:38:31;;;;;;;11.18;1.58;;;7.70;99.90;;;;;;4965445;28;20174;-83
2023/12/30 08:40:58;;;;;;;8.88;1.50;;;7.70;99.90;;;;;;4951696;28;20042;-83
2023/12/30 08:43:23;;;;;;;6.20;1.88;;;7.80;99.90;;;;;;4985246;28;20488;-85
2023/12/30 08:45:49;;;;;;;10.95;1.30;;;7.80;99.90;;;;;;4933507;28;20050;-83
2023/12/30 08:48:14;;;;;;;11.27;1.67;;;7.90;99.90;;;;;;4952791;28;20096;-82
2023/12/30 08:50:40;;;;;;;9.00;1.88;;;7.80;99.90;;;;;;4931982;28;20042;-84
2023/12/30 08:53:06;;;;;;;9.13;1.27;;;7.90;99.90;;;;;;4949104;28;20045;-84
2023/12/30 08:55:31;;;;;;;11.63;1.85;;;7.90;99.90;;;;;;4955355;28;20042;-84
2023/12/30 08:57:57;;;;;;;3.50;1.08;;;7.90;99.90;;;;;;4952888;28;20674;-85
2023/12/30 09:00:23;;;;;;;7.57;1.92;;;7.90;99.90;;;;;;4966110;28;20387;-85
2023/12/30 09:02:48;;;;;;;5.50;1.58;;;7.90;99.90;;;;;;4947694;28;20373;-84
2023/12/30 09:05:18;;;;;;;10.77;1.73;;;7.90;99.90;;;;;;4938243;28;20040;-84
2023/12/30 09:07:44;;;;;;;10.15;1.40;;;7.90;99.90;;;;;;4979538;28;20069;-85
2023/12/30 09:10:10;;;;;;;5.30;1.60;;;7.90;99.90;;;;;;4951016;28;20034;-81
2023/12/30 09:12:35;;;;;;;15.35;1.38;;;7.90;99.90;;;;;;4949725;28;20374;-79
2023/12/30 09:15:01;;;;;;;15.80;2.58;;;7.90;99.90;;;;;;4948020;28;20038;-79
2023/12/30 09:17:26;;;;;;;10.25;2.05;;;8.00;99.90;;;;;;4947595;28;20493;-79
2023/12/30 09:19:52;;;;;;;13.43;2.08;;;8.10;99.90;;;;;;4947546;28;20036;-78
2023/12/30 09:22:18;;;;;;;7.97;1.95;;;8.10;99.90;;;;;;4947912;28;20769;-79
2023/12/30 09:24:45;;;;;;;14.02;1.35;;;8.10;99.90;;;;;;4933762;28;20483;-79
2023/12/30 09:27:11;;;;;;;7.93;1.38;;;8.10;99.90;;;;;;4949462;28;20817;-79
2023/12/30 09:29:36;;;;;;;7.10;1.50;;;8.10;99.90;;;;;;4963406;28;20058;-79
2023/12/30 09:32:02;;;;;;;4.38;0.98;;;8.10;99.90;;;;;;4949846;28;20035;-79
2023/12/30 09:34:29;;;;;;;6.90;1.90;;;8.10;99.90;;;;;;4944552;28;20046;-78
2023/12/30 09:36:55;;;;;;;7.35;1.83;;;8.20;99.90;;;;;;4951602;28;20050;-78
2023/12/30 09:39:20;;;;;;;9.02;1.80;;;8.20;99.90;;;;;;4946065;28;20027;-78
2023/12/30 09:41:46;;;;;;;9.45;2.60;;;8.20;99.90;;;;;;4947997;28;20121;-78
2023/12/30 09:44:11;;;;;;;6.25;1.35;;;8.20;99.90;;;;;;4948984;28;20083;-79
2023/12/30 09:46:37;;;;;;;3.33;1.38;;;8.20;99.90;;;;;;4948281;28;20027;-79
2023/12/30 09:49:06;;;;;;;14.75;1.63;;;8.30;99.90;;;;;;4937326;28;20034;-79
2023/12/30 09:51:32;;;;;;;4.78;1.23;;;8.30;99.90;;;;;;4947636;28;20062;-79
2023/12/30 09:53:58;;;;;;;9.70;1.58;;;8.30;99.90;;;;;;4949736;28;20027;-79
2023/12/30 09:56:24;;;;;;;10.68;2.15;;;8.40;99.90;;;;;;4948428;28;20030;-79
2023/12/30 09:58:49;;;;;;;13.68;2.10;;;8.40;99.90;;;;;;4947101;28;20091;-79
2023/12/30 10:01:16;;;;;;;10.77;2.13;;;8.40;99.90;;;;;;4948938;28;20042;-79
2023/12/30 10:03:41;;;;;;;11.15;1.88;;;8.40;99.90;;;;;;4934109;28;20042;-79
2023/12/30 10:06:08;;;;;;;8.13;1.50;;;8.40;99.90;;;;;;4950541;28;20701;-79
2023/12/30 10:08:33;;;;;;;8.38;1.95;;;8.50;99.90;;;;;;4965042;28;20100;-79
2023/12/30 10:11:00;;;;;;;14.43;2.72;;;8.50;99.90;;;;;;4931549;28;20515;-79
2023/12/30 10:13:26;;;;;;;4.65;1.38;;;8.50;99.90;;;;;;4965209;28;20057;-80
2023/12/30 10:15:53;;;;;;;8.85;2.25;;;8.50;99.90;;;;;;4942517;28;20532;-78
2023/12/30 10:18:19;;;;;;;6.70;1.98;;;8.60;99.90;;;;;;4963060;28;20054;-78
2023/12/30 10:20:45;;;;;;;12.82;2.63;;;8.60;99.90;;;;;;4963592;28;20428;-78
2023/12/30 10:23:11;;;;;;;11.35;1.77;;;8.60;99.90;;;;;;4980206;28;20031;-82
2023/12/30 10:25:37;;;;;;;16.52;3.05;;;8.60;99.90;;;;;;4976572;28;20460;-82
2023/12/30 10:28:03;;;;;;;11.02;2.00;;;8.70;99.90;;;;;;4934399;28;20030;-82
2023/12/30 10:30:31;;;;;;;17.90;3.35;;;8.70;99.90;;;;;;4950961;28;20046;-82
2023/12/30 10:33:09;;;;;;;7.07;1.95;;;8.70;99.90;;;;;;4949693;28;20034;-83
2023/12/30 10:35:35;;;;;;;12.73;2.47;;;8.70;99.90;;;;;;4970305;28;20022;-82
2023/12/30 10:38:03;;;;;;;12.02;3.03;;;8.70;99.90;;;;;;4962739;28;20034;-82
2023/12/30 10:40:29;;;;;;;11.20;1.83;;;8.80;99.90;;;;;;4967026;28;20411;-82
2023/12/30 10:42:54;;;;;;;11.07;3.10;;;8.80;99.90;;;;;;4949279;28;20042;-80
2023/12/30 10:45:20;;;;;;;11.00;2.08;;;8.80;99.90;;;;;;4951445;28;20030;-82
2023/12/30 10:47:49;;;;;;;4.72;1.80;;;8.80;99.90;;;;;;4950388;28;20022;-82
2023/12/30 10:50:14;;;;;;;13.70;1.85;;;8.90;99.90;;;;;;4998603;28;20401;-81
2023/12/30 10:53:01;;;;;;;6.65;1.83;;;8.90;99.90;;;;;;4981927;28;20038;-81
2023/12/30 10:55:31;;;;;;;6.93;1.83;;;8.90;99.90;;;;;;4961259;28;20026;-82
2023/12/30 10:58:19;;;;;;;11.85;1.55;;;9.00;99.90;;;;;;4948147;28;20114;-81
2023/12/30 11:00:48;;;;;;;11.18;1.83;;;9.10;99.90;;;;;;4975930;28;20048;-81
2023/12/30 11:03:14;;;;;;;8.55;1.52;;;9.10;99.90;;;;;;4962284;28;20119;-82
2023/12/30 11:06:08;;;;;;;8.52;2.15;;;9.10;99.90;;;;;;4937900;28;20049;-81
2023/12/30 11:08:34;;;;;;;3.88;1.27;;;9.20;99.90;;;;;;4979653;28;20037;-81
2023/12/30 11:11:04;;;;;;;6.20;1.60;;;9.30;99.90;;;;;;4967859;28;20125;-82
2023/12/30 11:13:41;;;;;;;13.07;2.33;;;9.20;99.90;;;;;;4936663;28;20042;-80
2023/12/30 11:16:13;;;;;;;9.30;1.77;;;9.20;99.90;;;;;;4951188;28;20034;-81
2023/12/30 11:18:53;;;;;;;12.82;2.47;;;9.20;99.90;;;;;;4972211;28;20141;-81
2023/12/30 11:21:42;;;;;;;10.65;2.28;;;9.30;99.90;;;;;;4948774;28;20069;-81
2023/12/30 11:24:08;;;;;;;8.15;1.90;;;9.30;99.90;;;;;;4968169;28;20441;-81
2023/12/30 11:26:36;;;;;;;9.85;2.00;;;9.40;99.90;;;;;;4953965;28;20034;-80
2023/12/30 11:29:02;;;;;;;9.93;1.40;;;9.30;99.90;;;;;;4950132;28;20030;-81
2023/12/30 11:31:50;;;;;;;9.23;1.58;;;9.40;99.90;;;;;;4952602;28;20030;-78
2023/12/30 11:34:16;;;;;;;11.77;2.28;;;9.40;99.90;;;;;;4954836;28;20058;-79
2023/12/30 11:36:42;;;;;;;13.20;1.95;;;9.50;99.90;;;;;;4965694;28;20026;-78
2023/12/30 11:39:07;;;;;;;7.28;1.35;;;9.50;99.90;;;;;;4963946;28;20571;-79
2023/12/30 11:41:33;;;;;;;8.77;1.50;;;9.50;99.90;;;;;;4951845;28;20619;-78
2023/12/30 11:44:02;;;;;;;9.20;1.38;;;9.50;99.90;;;;;;4948167;28;20030;-79
2023/12/30 11:46:28;;;;;;;5.05;1.30;;;9.60;99.90;;;;;;4966622;28;20034;-79
2023/12/30 11:48:53;;;;;;;8.25;1.88;;;9.70;99.90;;;;;;4965109;28;20531;-79
2023/12/30 11:51:26;;;;;;;12.07;2.33;;;9.70;99.90;;;;;;4948676;28;20034;-78
2023/12/30 11:53:52;;;;;;;13.60;2.00;;;9.70;99.90;;;;;;4946743;28;20065;-79
2023/12/30 11:56:19;;;;;;;15.20;1.88;;;9.60;99.90;;;;;;4946713;28;20069;-79
2023/12/30 11:58:45;;;;;;;10.82;1.98;;;9.70;99.90;;;;;;4930432;28;20124;-79
2023/12/30 12:01:11;;;;;;;9.02;2.38;;;9.70;99.90;;;;;;4964358;28;20038;-79
2023/12/30 12:03:37;;;;;;;2.28;1.05;;;9.80;99.90;;;;;;4978477;28;20074;-79
2023/12/30 12:06:02;;;;;;;11.38;2.45;;;9.80;99.90;;;;;;4947975;28;20065;-79
2023/12/30 12:08:28;;;;;;;10.82;1.58;;;9.80;99.90;;;;;;4967234;28;20045;-79
2023/12/30 12:10:54;;;;;;;9.18;1.65;;;9.80;99.90;;;;;;4962186;28;20121;-78
2023/12/30 12:13:23;;;;;;;12.60;1.38;;;9.90;99.90;;;;;;4932406;28;20038;-79
2023/12/30 12:15:50;;;;;;;6.05;1.35;;;9.80;99.90;;;;;;4930488;28;20049;-79
2023/12/30 12:18:15;;;;;;;7.07;1.98;;;9.90;99.90;;;;;;4962014;28;20050;-79
2023/12/30 12:20:43;;;;;;;8.68;1.55;;;10.00;99.90;;;;;;4950067;28;20050;-79
2023/12/30 12:23:09;;;;;;;12.20;1.92;;;10.10;99.90;;;;;;4962331;28;20134;-79
2023/12/30 12:25:35;;;;;;;10.48;2.05;;;10.10;99.90;;;;;;4948007;28;20212;-79
2023/12/30 12:28:05;;;;;;;8.50;1.27;;;10.10;99.90;;;;;;4949773;28;20140;-79
2023/12/30 12:30:31;;;;;;;8.60;1.50;;;10.10;99.90;;;;;;4965900;28;20030;-79
2023/12/30 12:32:56;;;;;;;11.32;2.53;;;10.10;99.90;;;;;;4948145;28;20515;-79
2023/12/30 12:35:22;;;;;;;8.88;1.45;;;10.10;99.90;;;;;;4947793;28;20713;-79
2023/12/30 12:37:48;;;;;;;1.15;0.60;;;10.10;99.90;;;;;;4953870;28;20373;-79
2023/12/30 12:40:13;;;;;;;13.00;2.05;;;10.20;99.90;;;;;;4962328;28;20089;-79
2023/12/30 12:42:39;;;;;;;8.18;1.55;;;10.20;99.90;;;;;;4953765;28;20370;-79
2023/12/30 12:45:06;;;;;;;10.63;1.45;;;10.20;99.90;;;;;;4964155;28;20062;-79
2023/12/30 12:47:31;;;;;;;11.55;2.53;;;10.30;99.90;;;;;;4964170;28;20042;-79
2023/12/30 12:49:57;;;;;;;9.90;1.37;;;10.40;99.90;;;;;;4276118;28;10000284;-79
2023/12/30 12:52:23;;;;;;;11.38;2.40;;;10.20;99.90;;;;;;4965220;28;20316;-80